createdAt,value
2022-08-30T00:02:17.071Z,98696.20
2022-08-30T00:05:25.906Z,98693.60
2022-08-30T00:08:34.005Z,98697.00
2022-08-30T00:11:42.139Z,98693.00
2022-08-30T00:14:50.599Z,98694.40
2022-08-30T00:17:58.598Z,98699.80
2022-08-30T00:21:08.139Z,98699.60
2022-08-30T00:24:14.333Z,98702.00
2022-08-30T00:27:22.263Z,98701.40
2022-08-30T00:30:30.949Z,98698.40
2022-08-30T00:33:38.927Z,98701.60
2022-08-30T00:36:47.332Z,98703.80
2022-08-30T00:39:55.222Z,98697.60
2022-08-30T00:43:08.591Z,98695.80
2022-08-30T00:46:21.966Z,98702.20
2022-08-30T00:49:31.546Z,98703.20
2022-08-30T00:52:42.357Z,98702.00
2022-08-30T00:55:51.703Z,98700.60
2022-08-30T00:59:03.395Z,98702.80
2022-08-30T01:02:12.098Z,98701.00
2022-08-30T01:05:21.096Z,98697.60
2022-08-30T01:08:29.158Z,98698.00
2022-08-30T01:11:39.614Z,98701.40
2022-08-30T01:14:48.122Z,98700.80
2022-08-30T01:17:56.590Z,98697.80
2022-08-30T01:21:15.629Z,98699.80
2022-08-30T01:24:24.472Z,98694.60
2022-08-30T01:27:34.013Z,98697.40
2022-08-30T01:30:43.972Z,98694.20
2022-08-30T01:33:52.280Z,98698.60
2022-08-30T01:37:00.623Z,98690.60
2022-08-30T01:40:12.234Z,98694.40
2022-08-30T01:43:21.216Z,98694.80
2022-08-30T01:46:36.165Z,98690.20
2022-08-30T01:49:44.475Z,98690.00
2022-08-30T01:52:52.473Z,98688.20
2022-08-30T01:56:00.590Z,98688.40
2022-08-30T01:59:09.031Z,98690.00
2022-08-30T02:02:17.807Z,98689.20
2022-08-30T02:05:26.087Z,98683.20
2022-08-30T02:08:34.490Z,98677.20
2022-08-30T02:11:43.651Z,98672.80
2022-08-30T02:14:51.467Z,98673.60
2022-08-30T02:17:59.409Z,98673.40
2022-08-30T02:21:10.444Z,98674.20
2022-08-30T02:24:18.721Z,98671.00
2022-08-30T02:27:26.941Z,98673.80
2022-08-30T02:30:35.168Z,98672.80
2022-08-30T02:33:43.280Z,98674.20
2022-08-30T02:36:51.115Z,98676.00
2022-08-30T02:39:58.908Z,98671.20
2022-08-30T02:43:07.430Z,98677.00
2022-08-30T02:46:15.575Z,98679.00
2022-08-30T02:49:33.099Z,98679.40
2022-08-30T02:52:41.887Z,98679.60
2022-08-30T02:55:53.256Z,98676.60
2022-08-30T02:59:01.808Z,98680.80
2022-08-30T03:02:09.821Z,98684.00
2022-08-30T03:05:19.450Z,98679.60
2022-08-30T03:08:28.270Z,98682.60
2022-08-30T03:11:36.210Z,98682.20
2022-08-30T03:14:44.446Z,98680.20
2022-08-30T03:17:52.804Z,98682.20
2022-08-30T03:21:00.678Z,98681.40
2022-08-30T03:24:09.386Z,98686.60
2022-08-30T03:27:17.265Z,98688.00
2022-08-30T03:30:25.448Z,98689.60
2022-08-30T03:33:33.499Z,98687.20
2022-08-30T03:36:41.354Z,98681.80
2022-08-30T03:39:51.391Z,98686.80
2022-08-30T03:42:59.477Z,98685.80
2022-08-30T03:46:07.970Z,98696.60
2022-08-30T03:49:16.078Z,98694.80
2022-08-30T03:52:24.361Z,98699.60
2022-08-30T03:55:32.256Z,98700.60
2022-08-30T03:58:40.661Z,98699.80
2022-08-30T04:01:48.496Z,98703.00
2022-08-30T04:04:56.543Z,98707.20
2022-08-30T04:08:04.630Z,98715.40
2022-08-30T04:11:13.041Z,98721.40
2022-08-30T04:14:23.447Z,98724.00
2022-08-30T04:17:31.439Z,98726.40
2022-08-30T04:20:39.394Z,98735.20
2022-08-30T04:23:48.227Z,98741.20
2022-08-30T04:26:56.000Z,98738.00
2022-08-30T04:30:05.026Z,98743.20
2022-08-30T04:33:14.859Z,98742.40
2022-08-30T04:36:22.965Z,98744.40
2022-08-30T04:39:31.048Z,98749.20
2022-08-30T04:42:40.185Z,98752.00
2022-08-30T04:45:48.325Z,98758.40
2022-08-30T04:48:56.540Z,98767.20
2022-08-30T04:52:06.459Z,98768.40
2022-08-30T04:55:20.236Z,98768.40
2022-08-30T04:58:28.477Z,98775.60
2022-08-30T05:01:45.251Z,98774.00
2022-08-30T05:05:11.490Z,98782.80
2022-08-30T05:08:25.837Z,98784.80
2022-08-30T05:11:34.493Z,98790.80
2022-08-30T05:14:42.480Z,98792.40
2022-08-30T05:17:50.425Z,98788.40
2022-08-30T05:21:11.315Z,98789.00
2022-08-30T05:24:19.277Z,98788.60
2022-08-30T05:27:27.420Z,98784.40
2022-08-30T05:30:38.535Z,98787.60
2022-08-30T05:33:47.435Z,98787.00
2022-08-30T05:37:06.534Z,98789.20
2022-08-30T05:40:17.853Z,98791.20
2022-08-30T05:43:26.881Z,98785.00
2022-08-30T05:46:43.362Z,98797.00
2022-08-30T05:49:51.816Z,98799.40
2022-08-30T05:52:59.856Z,98804.80
2022-08-30T05:56:11.827Z,98805.60
2022-08-30T05:59:19.917Z,98811.40
2022-08-30T06:02:29.003Z,98809.20
2022-08-30T06:05:38.582Z,98811.20
2022-08-30T06:08:46.311Z,98809.20
2022-08-30T06:11:57.792Z,98808.20
2022-08-30T06:15:06.413Z,98808.60
2022-08-30T06:18:14.551Z,98808.80
2022-08-30T06:21:25.349Z,98813.20
2022-08-30T06:24:55.896Z,98812.00
2022-08-30T06:28:01.673Z,98807.20
2022-08-30T06:31:13.756Z,98808.60
2022-08-30T06:34:22.387Z,98807.80
2022-08-30T06:37:30.432Z,98813.20
2022-08-30T06:40:39.293Z,98817.80
2022-08-30T06:43:49.260Z,98815.00
2022-08-30T06:46:57.406Z,98816.60
2022-08-30T06:50:05.516Z,98814.80
2022-08-30T06:53:13.676Z,98814.60
2022-08-30T06:56:23.364Z,98815.60
2022-08-30T06:59:32.561Z,98812.80
2022-08-30T07:02:41.403Z,98816.20
2022-08-30T07:05:50.959Z,98819.20
2022-08-30T07:08:57.880Z,98825.40
2022-08-30T07:12:08.825Z,98824.60
2022-08-30T07:15:20.731Z,98827.40
2022-08-30T07:18:46.250Z,98830.40
2022-08-30T07:21:54.950Z,98828.80
2022-08-30T07:25:02.998Z,98827.60
2022-08-30T07:28:12.805Z,98830.00
2022-08-30T07:31:22.248Z,98829.60
2022-08-30T07:34:29.001Z,98827.80
2022-08-30T07:37:37.022Z,98836.40
2022-08-30T07:40:45.216Z,98840.80
2022-08-30T07:43:53.827Z,98840.40
2022-08-30T07:47:01.768Z,98835.60
2022-08-30T07:50:11.445Z,98832.40
2022-08-30T07:53:19.696Z,98832.80
2022-08-30T07:56:28.833Z,98830.20
2022-08-30T07:59:38.162Z,98830.80
2022-08-30T08:02:45.712Z,98826.80
2022-08-30T08:05:53.682Z,98820.20
2022-08-30T08:09:02.714Z,98822.40
2022-08-30T08:12:12.034Z,98825.00
2022-08-30T08:15:20.192Z,98825.40
2022-08-30T08:18:28.145Z,98825.80
2022-08-30T08:21:36.874Z,98832.00
2022-08-30T08:24:44.752Z,98828.20
2022-08-30T08:27:54.286Z,98828.40
2022-08-30T08:31:03.641Z,98833.80
2022-08-30T08:34:11.901Z,98829.80
2022-08-30T08:37:21.311Z,98832.00
2022-08-30T08:40:47.266Z,98832.00
2022-08-30T08:43:55.393Z,98828.60
2022-08-30T08:47:16.487Z,98828.20
2022-08-30T08:50:25.508Z,98827.40
2022-08-30T08:53:46.992Z,98829.00
2022-08-30T08:56:55.446Z,98827.40
2022-08-30T09:00:04.396Z,98830.60
2022-08-30T09:03:17.696Z,98830.80
2022-08-30T09:06:46.657Z,98828.80
2022-08-30T09:09:55.077Z,98821.40
2022-08-30T09:13:03.470Z,98821.20
2022-08-30T09:16:32.665Z,98822.80
2022-08-30T09:19:45.733Z,98820.40
2022-08-30T09:22:53.577Z,98815.40
2022-08-30T09:26:05.987Z,98814.20
2022-08-30T09:29:22.985Z,98809.80
2022-08-30T09:32:39.255Z,98813.80
2022-08-30T09:35:52.195Z,98813.40
2022-08-30T09:39:09.149Z,98816.60
2022-08-30T09:42:23.881Z,98814.60
2022-08-30T09:45:40.429Z,98812.20
2022-08-30T09:48:48.837Z,98810.20
2022-08-30T09:52:18.462Z,98804.00
2022-08-30T09:55:57.825Z,98805.40
2022-08-30T09:59:30.834Z,98807.80
2022-08-30T10:02:56.729Z,98805.20
2022-08-30T10:06:16.184Z,98800.60
2022-08-30T10:09:37.667Z,98792.00
2022-08-30T10:13:03.363Z,98787.00
2022-08-30T10:16:30.506Z,98784.00
2022-08-30T10:19:59.420Z,98780.00
2022-08-30T10:23:18.003Z,98785.00
2022-08-30T10:26:34.059Z,98784.60
2022-08-30T10:29:48.347Z,98780.80
2022-08-30T10:33:07.042Z,98777.20
2022-08-30T10:36:18.123Z,98774.20
2022-08-30T10:39:32.806Z,98770.80
2022-08-30T10:42:40.796Z,98772.00
2022-08-30T10:45:54.795Z,98772.00
2022-08-30T10:49:06.854Z,98770.40
2022-08-30T10:52:40.546Z,98763.00
2022-08-30T10:55:55.016Z,98758.20
2022-08-30T10:59:05.961Z,98752.40
2022-08-30T11:02:39.361Z,98753.00
2022-08-30T11:06:10.539Z,98746.00
2022-08-30T11:09:45.390Z,98744.20
2022-08-30T11:13:03.281Z,98743.80
2022-08-30T11:16:16.451Z,98743.80
2022-08-30T11:19:34.840Z,98740.00
2022-08-30T11:23:33.103Z,98737.60
2022-08-30T11:27:05.418Z,98728.20
2022-08-30T11:30:51.647Z,98725.80
2022-08-30T11:34:01.446Z,98730.20
2022-08-30T11:37:12.017Z,98730.00
2022-08-30T11:40:53.668Z,98730.40
2022-08-30T11:44:27.243Z,98723.40
2022-08-30T11:47:47.840Z,98722.60
2022-08-30T11:51:04.427Z,98716.60
2022-08-30T11:54:34.886Z,98713.60
2022-08-30T11:57:52.023Z,98710.00
2022-08-30T12:01:49.683Z,98704.40
2022-08-30T12:05:00.160Z,98702.00
2022-08-30T12:08:11.543Z,98694.60
2022-08-30T12:12:06.201Z,98703.80
2022-08-30T12:15:45.868Z,98700.00
2022-08-30T12:19:01.830Z,98706.00
2022-08-30T12:22:20.001Z,98709.80
2022-08-30T12:25:35.769Z,98698.20
2022-08-30T12:28:46.431Z,98685.00
2022-08-30T12:31:59.480Z,98682.20
2022-08-30T12:35:18.789Z,98676.80
2022-08-30T12:38:27.735Z,98675.80
2022-08-30T12:41:36.844Z,98670.00
2022-08-30T12:44:56.205Z,98661.40
2022-08-30T12:48:09.205Z,98661.80
2022-08-30T12:51:40.969Z,98650.20
2022-08-30T12:54:50.661Z,98647.40
2022-08-30T12:58:07.476Z,98638.40
2022-08-30T13:01:29.439Z,98639.40
2022-08-30T13:04:39.359Z,98640.20
2022-08-30T13:07:47.539Z,98641.20
2022-08-30T13:11:08.066Z,98636.20
2022-08-30T13:14:38.163Z,98637.40
2022-08-30T13:18:11.288Z,98633.80
2022-08-30T13:21:28.738Z,98631.40
2022-08-30T13:24:37.205Z,98634.40
2022-08-30T13:27:45.391Z,98627.80
2022-08-30T13:30:54.591Z,98621.20
2022-08-30T13:34:05.144Z,98619.00
2022-08-30T13:40:47.606Z,98616.40
2022-08-30T13:44:12.741Z,98617.60
2022-08-30T13:47:38.894Z,98616.00
2022-08-30T13:50:47.213Z,98615.40
2022-08-30T13:53:55.931Z,98613.40
2022-08-30T13:57:06.817Z,98611.60
2022-08-30T14:00:22.034Z,98608.20
2022-08-30T14:03:30.332Z,98610.40
2022-08-30T14:07:13.587Z,98609.80
2022-08-30T14:13:36.819Z,98607.60
2022-08-30T14:16:47.833Z,98605.40
2022-08-30T14:19:56.536Z,98603.80
2022-08-30T14:23:10.165Z,98597.40
2022-08-30T14:26:23.920Z,98596.00
2022-08-30T14:29:32.007Z,98598.80
2022-08-30T14:32:39.860Z,98590.20
2022-08-30T14:35:48.203Z,98589.00
2022-08-30T14:38:58.295Z,98589.40
2022-08-30T14:42:07.654Z,98593.40
2022-08-30T14:45:18.069Z,98589.00
2022-08-30T14:48:27.451Z,98583.80
2022-08-30T14:51:38.103Z,98580.20
2022-08-30T14:54:46.477Z,98579.20
2022-08-30T14:57:54.746Z,98575.40
2022-08-30T15:01:02.776Z,98576.40
2022-08-30T15:04:12.812Z,98579.40
2022-08-30T15:07:21.023Z,98580.80
2022-08-30T15:10:29.734Z,98579.80
2022-08-30T15:13:38.368Z,98575.20
2022-08-30T15:16:46.553Z,98570.60
2022-08-30T15:19:54.663Z,98564.80
2022-08-30T15:23:02.484Z,98567.20
2022-08-30T15:26:11.416Z,98564.00
2022-08-30T15:29:23.526Z,98561.20
2022-08-30T15:32:32.058Z,98563.40
2022-08-30T15:35:40.208Z,98560.80
2022-08-30T15:38:48.376Z,98558.60
2022-08-30T15:42:01.000Z,98558.20
2022-08-30T15:45:12.310Z,98554.80
2022-08-30T15:48:20.133Z,98559.40
2022-08-30T15:51:30.819Z,98560.00
2022-08-30T15:54:49.424Z,98558.60
2022-08-30T15:57:57.783Z,98562.60
2022-08-30T16:01:06.294Z,98562.60
2022-08-30T16:04:14.658Z,98560.80
2022-08-30T16:07:22.503Z,98557.60
2022-08-30T16:10:30.305Z,98553.60
2022-08-30T16:13:38.394Z,98560.20
2022-08-30T16:16:46.573Z,98554.00
2022-08-30T16:19:58.474Z,98555.40
2022-08-30T16:23:06.727Z,98545.20
2022-08-30T16:26:19.234Z,98547.60
2022-08-30T16:29:28.118Z,98550.80
2022-08-30T16:32:37.696Z,98553.40
2022-08-30T16:35:45.538Z,98555.00
2022-08-30T16:38:57.986Z,98551.20
2022-08-30T16:42:06.860Z,98553.60
2022-08-30T16:45:16.333Z,98551.60
2022-08-30T16:48:22.452Z,98556.20
2022-08-30T16:51:33.901Z,98547.60
2022-08-30T16:54:42.222Z,98553.40
2022-08-30T16:57:51.717Z,98552.60
2022-08-30T17:00:59.658Z,98556.20
2022-08-30T17:04:08.848Z,98563.00
2022-08-30T17:07:19.637Z,98564.60
2022-08-30T17:10:31.493Z,98563.20
2022-08-30T17:13:41.579Z,98557.00
2022-08-30T17:16:49.338Z,98559.40
2022-08-30T17:19:57.602Z,98562.60
2022-08-30T17:23:05.497Z,98559.60
2022-08-30T17:26:13.878Z,98565.80
2022-08-30T17:29:23.932Z,98569.80
2022-08-30T17:32:31.819Z,98570.60
2022-08-30T17:35:40.143Z,98574.60
2022-08-30T17:38:47.926Z,98578.20
2022-08-30T17:41:57.420Z,98579.80
2022-08-30T17:45:11.640Z,98584.40
2022-08-30T17:48:19.665Z,98588.40
2022-08-30T17:51:27.880Z,98589.80
2022-08-30T17:54:37.608Z,98595.20
2022-08-30T17:57:45.431Z,98603.80
2022-08-30T18:00:55.259Z,98601.20
2022-08-30T18:04:45.404Z,98605.00
2022-08-30T18:12:12.639Z,98610.00
2022-08-30T18:15:22.813Z,98609.20
2022-08-30T18:18:31.095Z,98617.80
2022-08-30T18:21:43.377Z,98623.40
2022-08-30T18:24:51.189Z,98628.60
2022-08-30T18:27:59.295Z,98629.40
2022-08-30T18:31:07.732Z,98633.60
2022-08-30T18:34:17.373Z,98635.60
2022-08-30T18:37:25.302Z,98637.80
2022-08-30T18:40:33.086Z,98640.40
2022-08-30T18:43:42.660Z,98635.80
2022-08-30T18:46:55.865Z,98637.60
2022-08-30T18:50:04.920Z,98641.00
2022-08-30T18:53:13.592Z,98646.00
2022-08-30T18:56:21.908Z,98645.00
2022-08-30T18:59:36.807Z,98638.00
2022-08-30T19:02:45.597Z,98635.80
2022-08-30T19:05:56.296Z,98640.60
2022-08-30T19:09:09.143Z,98641.80
2022-08-30T19:12:17.729Z,98641.60
2022-08-30T19:15:26.326Z,98643.40
2022-08-30T19:18:34.520Z,98647.80
2022-08-30T19:21:43.877Z,98648.60
2022-08-30T19:58:33.333Z,98641.20
2022-08-30T20:02:36.890Z,98641.60
2022-08-30T20:05:51.122Z,98644.40
2022-08-30T20:09:03.068Z,98644.80
2022-08-30T20:12:26.629Z,98636.40
2022-08-30T20:15:45.132Z,98638.80
2022-08-30T20:18:57.431Z,98637.60
2022-08-30T20:22:17.427Z,98636.80
2022-08-30T20:25:25.895Z,98636.40
2022-08-30T20:28:34.497Z,98631.00
2022-08-30T20:31:42.897Z,98628.20
2022-08-30T20:34:50.689Z,98625.80
2022-08-30T20:38:06.304Z,98623.80
2022-08-30T20:41:18.103Z,98617.00
2022-08-30T20:44:26.223Z,98610.60
2022-08-30T20:47:36.640Z,98614.40
2022-08-30T20:50:45.177Z,98609.80
2022-08-30T20:53:53.485Z,98613.00
2022-08-30T20:57:01.572Z,98613.00
2022-08-30T21:00:14.196Z,98614.00
2022-08-30T21:03:28.044Z,98613.80
2022-08-30T21:06:37.755Z,98615.40
2022-08-30T21:09:44.189Z,98618.20
2022-08-30T21:12:53.412Z,98618.60
2022-08-30T21:16:03.437Z,98624.00
2022-08-30T21:19:12.037Z,98627.20
2022-08-30T21:22:20.081Z,98622.40
2022-08-30T21:25:28.326Z,98621.60
2022-08-30T21:28:37.283Z,98626.00
2022-08-30T21:31:45.238Z,98626.00
2022-08-30T21:35:12.261Z,98627.60
2022-08-30T21:38:20.663Z,98630.20
2022-08-30T21:41:30.376Z,98631.00
2022-08-30T21:44:38.086Z,98633.00
2022-08-30T21:47:46.675Z,98634.40
2022-08-30T21:50:55.521Z,98637.00
2022-08-30T21:54:04.308Z,98633.40
2022-08-30T21:57:12.345Z,98636.40
2022-08-30T22:00:22.244Z,98632.80
2022-08-30T22:03:30.030Z,98631.00
2022-08-30T22:06:41.266Z,98630.20
2022-08-30T22:09:49.286Z,98628.80
2022-08-30T22:12:57.129Z,98628.00
2022-08-30T22:16:05.866Z,98626.40
2022-08-30T22:19:14.263Z,98624.80
2022-08-30T22:22:22.538Z,98623.40
2022-08-30T22:25:31.307Z,98621.60
2022-08-30T22:28:40.184Z,98618.60
2022-08-30T22:31:48.335Z,98613.00
2022-08-30T22:34:56.401Z,98607.80
2022-08-30T22:38:04.654Z,98601.80
2022-08-30T22:41:19.040Z,98598.80
2022-08-30T22:44:33.397Z,98586.80
2022-08-30T22:47:41.321Z,98583.00
2022-08-30T22:50:49.186Z,98580.20
2022-08-30T22:53:57.378Z,98583.20
2022-08-30T22:57:05.494Z,98580.80
2022-08-30T23:00:20.230Z,98580.00
2022-08-30T23:03:28.359Z,98576.20
2022-08-30T23:06:37.298Z,98577.40
2022-08-30T23:09:45.254Z,98574.20
2022-08-30T23:12:53.072Z,98570.20
2022-08-30T23:16:02.934Z,98566.40
2022-08-30T23:19:10.942Z,98565.20
2022-08-30T23:22:19.099Z,98562.40
2022-08-30T23:25:47.167Z,98565.40
2022-08-30T23:29:17.380Z,98562.60
2022-08-30T23:32:43.395Z,98563.40
2022-08-30T23:36:09.094Z,98566.40
2022-08-30T23:39:34.777Z,98566.20
2022-08-30T23:43:00.223Z,98563.60
2022-08-30T23:46:26.034Z,98556.60
2022-08-30T23:49:51.910Z,98556.00
2022-08-30T23:53:17.470Z,98554.40
2022-08-30T23:56:43.361Z,98551.80
